• Join FlightAware (Why Join?)
  • Login
  • US Flag 
11:16AM EST


 

Airport Tracker/Info


-or-


 

Live Flight TrackerFlight Track Log ✈ SWA1223 ✈ 19-Apr-2013 ✈ KPHX - KEWR

Flight Track Log - Related Links

Times and Time Zones

All times are in EDT time to prevent confusion due to time zone crossing. See the SWA1223 flight status page for this flight to view local times or setup timezone preferences in your user account.

Time Position Orientation Groundspeed Altitude Reporting Facility
EDT Latitude Longitude Course Direction KTS MPH feet Rate Location/Type
03:18PM 33.4333 -111.9833 87° East 164 189 2,300  Level Phoenix TRACON
03:19PM 33.4381 -111.8717 87° East 230 265 4,700 2,220 Climbing Albuquerque Center
03:20PM 33.4753 -111.7933 60° Northeast 271 312 8,100 3,060 Climbing Albuquerque Center
03:21PM 33.5328 -111.7325 41° Northeast 287 330 11,100 2,880 Climbing Albuquerque Center
03:22PM 33.6092 -111.6911 24° Northeast 301 346 14,100 2,820 Climbing Albuquerque Center
03:23PM 33.6917 -111.6806 North 302 348 17,000 1,980 Climbing Albuquerque Center
03:25PM 33.8014 -111.6953 354° North 340 391 18,200 1,680 Climbing Albuquerque Center
03:26PM 33.9125 -111.7089 354° North 374 430 20,500 2,220 Climbing Albuquerque Center
03:27PM 34.0208 -111.7236 354° North 389 448 22,900 2,220 Climbing Albuquerque Center
03:28PM 34.1061 -111.6678 28° Northeast 406 467 25,200 1,980 Climbing Albuquerque Center
03:29PM 34.2064 -111.5536 43° Northeast 413 475 27,100 1,500 Climbing Albuquerque Center
03:30PM 34.2944 -111.4542 43° Northeast 427 491 28,300 1,320 Climbing Albuquerque Center
03:31PM 34.3842 -111.3511 43° Northeast 439 505 29,900 1,260 Climbing Albuquerque Center
03:32PM 34.4728 -111.2492 43° Northeast 442 509 31,000 480 Climbing Albuquerque Center
03:33PM 34.5603 -111.1472 44° Northeast 439 505 31,000  Level Albuquerque Center
03:34PM 34.6483 -111.0467 43° Northeast 437 503 31,000  Level Albuquerque Center
03:35PM 34.7536 -110.9244 44° Northeast 436 502 31,000  Level Albuquerque Center
03:36PM 34.8417 -110.8236 43° Northeast 435 501 31,000  Level Albuquerque Center
03:37PM 34.9261 -110.7208 45° Northeast 444 511 31,000  Level Albuquerque Center
03:38PM 35.0219 -110.6072 44° Northeast 434 499 31,000 780 Level Albuquerque Center
03:39PM 35.1033 -110.5144 43° Northeast 431 496 32,700 1,740 Climbing Albuquerque Center
03:40PM 35.2014 -110.4017 43° Northeast 417 480 34,700 1,320 Climbing Albuquerque Center
03:41PM 35.2808 -110.3064 44° Northeast 417 480 35,500 720 Climbing Albuquerque Center
03:42PM 35.3744 -110.1936 44° Northeast 422 486 36,200 600 Climbing Albuquerque Center
03:43PM 35.4583 -110.0944 44° Northeast 432 497 36,800 360 Climbing Albuquerque Center
03:44PM 35.5572 -109.9778 44° Northeast 440 506 37,000 60 Climbing Albuquerque Center
03:45PM 35.6422 -109.8753 44° Northeast 445 512 37,000  Level Albuquerque Center
03:46PM 35.7339 -109.7497 48° Northeast 443 510 37,000  Level Albuquerque Center
03:47PM 35.8047 -109.6328 53° Northeast 444 511 37,000  Level Albuquerque Center
03:48PM 35.8767 -109.5181 52° Northeast 443 510 37,000  Level Albuquerque Center
03:49PM 35.9128 -109.4608 52° Northeast 443 510 37,000  Level Denver Center
03:50PM 35.9972 -109.3253 52° Northeast 444 511 37,000  Level Denver Center
03:50PM 36.0333 -109.2672 52° Northeast 444 511 37,000  Level Albuquerque Center
03:51PM 36.1147 -109.1361 52° Northeast 443 510 37,000  Level Albuquerque Center
03:52PM 36.1417 -109.0922 53° Northeast 444 511 37,000  Level Denver Center
03:53PM 36.2275 -108.9542 52° Northeast 445 512 37,000  Level Denver Center
03:54PM 36.3008 -108.8356 52° Northeast 446 513 37,000  Level Denver Center
03:55PM 36.3850 -108.6975 53° Northeast 446 513 37,000  Level Denver Center
03:56PM 36.4575 -108.5792 53° Northeast 447 514 37,000  Level Denver Center
03:57PM 36.5289 -108.4617 53° Northeast 445 512 37,000  Level Denver Center
03:58PM 36.6131 -108.3236 53° Northeast 448 516 37,000  Level Denver Center
03:59PM 36.6847 -108.2036 53° Northeast 450 518 37,000  Level Denver Center
04:00PM 36.7608 -108.0575 57° Northeast 455 524 37,000  Level Denver Center
04:01PM 36.8133 -107.8597 72° East 470 541 37,000  Level Denver Center
04:02PM 36.8536 -107.7139 71° East 467 537 37,000  Level Denver Center
04:03PM 36.8931 -107.5647 72° East 470 541 37,000  Level Denver Center
04:04PM 36.9406 -107.3922 71° East 469 540 37,000  Level Denver Center
04:05PM 36.9789 -107.2439 72° East 469 540 37,000  Level Denver Center
04:07PM 37.0256 -107.0722 71° East 467 537 37,000  Level Denver Center
04:08PM 37.0647 -106.9233 72° East 469 540 37,000  Level Denver Center
04:09PM 37.1114 -106.7514 71° East 467 537 37,000  Level Denver Center
04:10PM 37.1483 -106.6028 73° East 468 539 37,000  Level Denver Center
04:11PM 37.1942 -106.4303 72° East 467 537 37,000  Level Denver Center
04:12PM 37.2317 -106.2817 72° East 467 537 37,000  Level Denver Center
04:13PM 37.2761 -106.1083 72° East 466 536 37,000  Level Denver Center
04:14PM 37.3119 -105.9594 73° East 467 537 37,000  Level Denver Center
04:15PM 37.3564 -105.7869 72° East 465 535 37,000  Level Denver Center
04:16PM 37.4361 -105.6708 49° Northeast 452 520 37,000  Level Denver Center
04:17PM 37.5211 -105.5306 53° Northeast 453 521 37,000  Level Denver Center
04:18PM 37.6158 -105.4431 36° Northeast 441 507 37,000  Level Denver Center
04:19PM 37.7147 -105.3650 32° Northeast 436 502 37,000  Level Denver Center
04:20PM 37.8147 -105.2858 32° Northeast 439 505 37,000  Level Denver Center
04:21PM 37.9306 -105.1942 32° Northeast 439 505 37,000  Level Denver Center
04:22PM 38.0461 -105.1019 32° Northeast 439 505 37,000  Level Denver Center
04:23PM 38.1453 -105.0233 32° Northeast 437 503 37,000  Level Denver Center
04:24PM 38.2600 -104.9289 33° Northeast 438 504 37,000  Level Denver Center
04:25PM 38.3350 -104.8075 52° Northeast 457 526 37,000  Level Denver Center
04:26PM 38.4033 -104.6728 57° Northeast 464 534 37,000  Level Denver Center
04:27PM 38.4856 -104.5117 57° Northeast 462 532 37,000  Level Denver Center
04:28PM 38.5572 -104.3742 56° Northeast 461 531 37,000  Level Denver Center
04:29PM 38.6272 -104.2386 57° Northeast 458 527 37,000  Level Denver Center
04:30PM 38.6944 -104.1050 57° Northeast 458 527 37,000  Level Denver Center
04:31PM 38.7728 -103.9514 57° Northeast 459 528 37,000  Level Denver Center
04:33PM 38.8478 -103.7863 60° Northeast  Level FlightAware Approximate
04:33PM 38.9211 -103.6583 60° Northeast 469 540 37,000  Level Denver Center
04:34PM 38.9908 -103.5200 57° Northeast 461 531 37,000  Level Denver Center
04:35PM 39.0617 -103.3783 57° Northeast 466 536 37,000  Level Denver Center
04:36PM 39.1336 -103.2367 57° Northeast 470 541 37,000  Level Denver Center
04:38PM 39.2033 -103.0956 57° Northeast 466 536 37,000  Level Denver Center
04:39PM 39.2672 -102.9481 61° Northeast 470 541 37,000  Level Denver Center
04:40PM 39.3097 -102.7856 71° East 477 549 37,000  Level Denver Center
04:41PM 39.3625 -102.5978 70° East 475 547 37,000  Level Denver Center
04:42PM 39.3925 -102.4897 70° East 476 548 37,000  Level Denver Center
04:43PM 39.4525 -102.2750 70° East 472 543 37,000  Level Denver Center
04:44PM 39.4950 -102.1208 70° East 475 547 37,000  Level Denver Center
04:45PM 39.5425 -101.9397 71° East 476 548 37,000  Level Denver Center
04:46PM 39.5844 -101.7867 70° East 473 544 37,000  Level Denver Center
04:47PM 39.6331 -101.6064 71° East 474 545 37,000  Level Denver Center
04:48PM 39.6739 -101.4525 71° East 473 544 37,000  Level Denver Center
04:49PM 39.7219 -101.2711 71° East 477 549 37,000  Level Denver Center
04:50PM 39.7625 -101.1136 71° East 481 554 37,000  Level Denver Center
04:51PM 39.8108 -100.9319 71° East 479 551 37,000  Level Denver Center
04:52PM 39.8450 -100.8011 71° East 480 552 37,000  Level Denver Center
04:53PM 39.8986 -100.5931 71° East 479 551 37,000  Level Denver Center
04:54PM 39.9386 -100.4372 71° East 477 549 37,000  Level Denver Center
04:55PM 39.9786 -100.2828 71° East 474 545 37,000  Level Denver Center
04:56PM 40.0267 -100.0914 72° East 475 547 37,000  Level Denver Center
04:57PM 40.0636 -99.9428 72° East 481 554 37,000  Level Denver Center
04:58PM 40.1092 -99.7617 72° East 477 549 37,000  Level Denver Center
04:59PM 40.1500 -99.5967 72° East 478 550 37,000  Level Denver Center
05:00PM 40.1911 -99.4314 72° East 479 551 37,000  Level Denver Center
05:01PM 40.2317 -99.2667 72° East 478 550 37,000  Level Denver Center
05:02PM 40.2792 -99.0667 73° East 481 554 37,000  Level Denver Center
05:03PM 40.3186 -98.9028 72° East 476 548 37,000  Level Denver Center
05:04PM 40.3589 -98.7403 72° East 472 543 37,000  Level Denver Center
05:05PM 40.3967 -98.5736 73° East 477 549 37,000  Level Denver Center
05:06PM 40.3969 -98.5728 66° East 477 549 37,000  Level Minneapolis Center
05:07PM 40.4528 -98.3408 72° East 479 551 37,000  Level Minneapolis Center
05:08PM 40.4903 -98.1722 74° East 482 555 37,000  Level Minneapolis Center
05:09PM 40.5300 -98.0022 73° East 487 560 37,000  Level Minneapolis Center
05:10PM 40.5689 -97.8289 73° East 493 567 37,000  Level Minneapolis Center
05:11PM 40.6092 -97.6547 73° East 498 573 37,000  Level Minneapolis Center
05:12PM 40.6572 -97.4456 73° East 498 573 37,000  Level Minneapolis Center
05:13PM 40.6950 -97.2769 73° East 498 573 37,000  Level Minneapolis Center
05:14PM 40.7325 -97.1039 74° East 494 568 37,000  Level Minneapolis Center
05:15PM 40.7700 -96.9314 74° East 492 566 37,000  Level Minneapolis Center
05:16PM 40.8089 -96.7589 73° East 492 566 37,000  Level Minneapolis Center
05:17PM 40.8522 -96.5525 74° East 489 563 37,000  Level Minneapolis Center
05:18PM 40.8897 -96.3797 74° East 492 566 37,000  Level Minneapolis Center
05:19PM 40.9275 -96.2075 74° East 492 566 37,000  Level Minneapolis Center
05:20PM 40.9642 -96.0347 74° East 492 566 37,000  Level Minneapolis Center
05:21PM 41.0000 -95.8628 75° East 492 566 37,000  Level Minneapolis Center
05:22PM 41.0428 -95.6558 75° East 492 566 37,000  Level Minneapolis Center
05:23PM 41.0778 -95.4828 75° East 491 565 37,000  Level Minneapolis Center
05:24PM 41.1133 -95.3097 75° East 489 563 37,000  Level Minneapolis Center
05:25PM 41.1481 -95.1358 75° East 490 564 37,000  Level Minneapolis Center
05:26PM 41.1831 -94.9597 75° East 492 566 37,000  Level Minneapolis Center
05:27PM 41.2183 -94.7836 75° East 494 568 37,000  Level Minneapolis Center
05:28PM 41.2592 -94.5706 76° East 496 571 37,000  Level Minneapolis Center
05:29PM 41.2931 -94.3939 76° East 496 571 37,000  Level Minneapolis Center
05:30PM 41.3297 -94.2161 75° East 496 571 37,000  Level Minneapolis Center
05:32PM 41.3619 -94.0386 76° East 496 571 37,000  Level Minneapolis Center
05:33PM 41.3961 -93.8614 76° East 496 571 37,000  Level Minneapolis Center
05:34PM 41.4292 -93.6847 76° East 495 570 37,000  Level Minneapolis Center
05:35PM 41.4517 -93.5036 81° East 497 572 37,000  Level Minneapolis Center
05:36PM 41.4725 -93.2792 83° East 506 582 37,100 420 Climbing Minneapolis Center
05:37PM 41.4906 -93.0944 83° East 504 580 37,900 720 Climbing Minneapolis Center
05:38PM 41.5069 -92.9100 83° East 503 579 38,600 480 Climbing Minneapolis Center
05:39PM 41.5242 -92.7253 83° East 503 579 39,000 180 Climbing Minneapolis Center
05:40PM 41.5411 -92.5311 83° East 509 586 39,000  Level Chicago Center
05:41PM 41.5608 -92.3094 83° East 508 585 39,000  Level Chicago Center
05:42PM 41.5758 -92.1278 84° East 502 578 39,000  Level Chicago Center
05:43PM 41.5914 -91.9458 83° East 500 575 39,000  Level Chicago Center
05:44PM 41.6078 -91.7639 83° East 500 575 39,000  Level Chicago Center
05:45PM 41.6219 -91.5814 84° East 499 574 39,000  Level Chicago Center
05:46PM 41.6389 -91.3606 84° East 502 578 39,000  Level Chicago Center
05:47PM 41.6536 -91.1742 84° East 508 585 39,000  Level Chicago Center
05:48PM 41.6681 -90.9878 84° East 511 588 39,000  Level Chicago Center
05:49PM 41.6817 -90.8017 84° East 510 587 39,000  Level Chicago Center
05:50PM 41.6972 -90.5853 84° East 513 590 39,000  Level Chicago Center
05:51PM 41.7103 -90.3944 85° East 514 592 39,000  Level Chicago Center
05:52PM 41.7228 -90.2042 85° East 513 590 39,000  Level Chicago Center
05:53PM 41.7369 -90.0092 84° East 522 601 39,000  Level Chicago Center
05:54PM 41.7494 -89.8156 85° East 521 600 39,000  Level Chicago Center
05:55PM 41.7617 -89.6197 85° East 525 604 39,000  Level Chicago Center
05:56PM 41.7736 -89.4164 85° East 524 603 39,000  Level Chicago Center
05:57PM 41.7864 -89.2236 85° East 522 601 39,000  Level Chicago Center
05:58PM 41.7978 -88.9919 86° East 523 602 39,000  Level Chicago Center
05:59PM 41.8086 -88.7994 86° East 521 600 39,000  Level Chicago Center
06:00PM 41.8194 -88.6064 86° East 520 598 39,000  Level Chicago Center
06:01PM 41.8300 -88.4133 86° East 519 597 39,000  Level Chicago Center
06:03PM 41.8389 -88.2219 86° East 514 592 39,000  Level Chicago Center
06:04PM 41.8489 -88.0297 86° East 514 592 39,000  Level Chicago Center
06:05PM 41.8581 -87.8367 86° East 515 593 39,000  Level Chicago Center
06:06PM 41.8672 -87.6447 86° East 515 593 39,000  Level Chicago Center
06:07PM 41.8772 -87.4122 87° East 517 595 39,000  Level Chicago Center
06:08PM 41.8847 -87.2175 87° East 522 601 39,000  Level Chicago Center
06:09PM 41.8931 -87.0247 87° East 519 597 39,000  Level Chicago Center
06:10PM 41.9006 -86.8311 87° East 521 600 39,000  Level Chicago Center
06:11PM 41.9078 -86.6439 87° East 522 601 39,000  Level Chicago Center
06:12PM 41.9153 -86.4494 87° East 523 602 39,000  Level Chicago Center
06:13PM 41.9225 -86.2181 88° East 519 597 39,000  Level Chicago Center
06:14PM 41.9283 -86.0247 88° East 519 597 39,000  Level Chicago Center
06:15PM 41.9344 -85.8286 88° East 523 602 39,000  Level Chicago Center
06:16PM 41.9397 -85.6333 88° East 522 601 39,000  Level Chicago Center
06:17PM 41.9447 -85.4386 88° East 517 595 39,000  Level Chicago Center
06:18PM 41.9528 -85.2411 87° East 521 600 39,000  Level Cleveland Center
06:19PM 41.9522 -85.0456 90° East 521 600 39,000  Level Cleveland Center
06:20PM 41.9519 -84.8889 90° East 521 600 39,000  Level Cleveland Center
06:21PM 41.9494 -84.6767 91° East 521 600 39,000  Level Cleveland Center
06:22PM 41.9478 -84.4836 91° East 515 593 39,000  Level Cleveland Center
06:23PM 41.9458 -84.2908 91° East 515 593 39,000  Level Cleveland Center
06:24PM 41.9414 -84.1036 92° East 510 587 39,000  Level Cleveland Center
06:25PM 41.9386 -83.9136 91° East 510 587 39,000  Level Cleveland Center
06:26PM 41.9356 -83.7292 91° East 500 575 39,000  Level Cleveland Center
06:27PM 41.9347 -83.5253 90° East 500 575 39,000  Level Cleveland Center
06:28PM 41.9311 -83.3353 91° East 500 575 39,000  Level Cleveland Center
06:29PM 41.9289 -83.1650 91° East 500 575 39,000  Level Cleveland Center
06:30PM 41.9308 -82.9753 89° East 500 575 39,000  Level Cleveland Center
06:31PM 41.9283 -82.7853 91° East 505 581 39,000  Level Cleveland Center
06:32PM 41.9278 -82.5981 90° East 505 581 39,000  Level Cleveland Center
06:33PM 41.9225 -82.4028 92° East 505 581 39,000  Level Cleveland Center
06:34PM 41.9233 -82.2128 90° East 510 587 39,000  Level Cleveland Center
06:35PM 41.9217 -82.0231 91° East 510 587 39,000  Level Cleveland Center
06:36PM 41.9178 -81.8306 91° East 517 595 39,000  Level Cleveland Center
06:37PM 41.9008 -81.6433 97° East 512 589 39,000  Level Cleveland Center
06:38PM 41.8817 -81.4367 97° East 507 583 39,000  Level Cleveland Center
06:39PM 41.8642 -81.2522 97° East 502 578 39,000  Level Cleveland Center
06:40PM 41.8483 -81.0681 97° East 502 578 39,000  Level Cleveland Center
06:41PM 41.8283 -80.8842 98° East 497 572 39,000  Level Cleveland Center
06:42PM 41.8119 -80.7003 97° East 502 578 39,000  Level Cleveland Center
06:43PM 41.7931 -80.5108 98° East 502 578 39,000  Level Cleveland Center
06:44PM 41.7764 -80.3297 97° East 502 578 39,000  Level Cleveland Center
06:45PM 41.7592 -80.1683 98° East 497 572 39,000  Level Cleveland Center
06:46PM 41.7394 -79.9875 98° East 487 560 39,000  Level Cleveland Center
06:47PM 41.7219 -79.8069 97° East 481 554 39,000  Level Cleveland Center
06:48PM 41.7036 -79.6181 97° East 476 548 39,000  Level Cleveland Center
06:49PM 41.6833 -79.4489 99° East 470 541 39,000  Level Cleveland Center
06:50PM 41.6650 -79.2769 98° East 465 535 39,000  Level Cleveland Center
06:51PM 41.6461 -79.1047 98° East 470 541 39,000 -240 Level Cleveland Center
06:52PM 41.6250 -78.9275 99° East 470 541 38,600 -660 Descending Cleveland Center
06:53PM 41.6058 -78.7586 99° East 465 535 37,700 -960 Descending Cleveland Center
06:54PM 41.5883 -78.5897 98° East 465 535 36,700 -960 Descending Cleveland Center
06:55PM 41.5664 -78.4211 100° East 465 535 35,800 -960 Descending Cleveland Center
06:56PM 41.5464 -78.2497 99° East 465 535 34,800 -960 Descending Cleveland Center
06:58PM 41.5103 -77.9575 99° East 469 540 33,200 -960 Descending New York Center
06:59PM 41.4853 -77.7831 101° East 474 545 32,200 -1,020 Descending New York Center
07:00PM 41.4617 -77.6144 101° East 474 545 31,200 -720 Descending New York Center
07:01PM 41.4347 -77.4261 101° East 469 540 30,800 -780 Descending New York Center
07:02PM 41.4119 -77.2772 101° East 445 512 29,700 -1,140 Descending New York Center
07:03PM 41.3886 -77.1311 102° East 425 489 28,600 -1,080 Descending New York Center
07:04PM 41.3364 -77.0158 121° Southeast 374 430 27,600 -1,200 Descending New York Center
07:05PM 41.3028 -76.9022 111° Southeast 374 430 26,200 -1,260 Descending New York Center
07:06PM 41.3292 -76.7525 77° East 367 422 25,200 -1,020 Descending New York Center
07:07PM 41.2939 -76.6225 110° East 367 422 24,200 -960 Descending New York Center
07:08PM 41.2606 -76.4953 109° East 367 422 23,300 -960 Descending New York Center
07:09PM 41.2272 -76.3656 109° East 367 422 22,300 -900 Descending New York Center
07:10PM 41.1933 -76.2386 109° East 372 428 21,500 -1,020 Descending New York Center
07:11PM 41.1575 -76.1144 111° Southeast 372 428 20,300 -1,560 Descending New York Center
07:12PM 41.1219 -75.9739 109° East 367 422 18,500 -1,920 Descending New York Center
07:13PM 41.0894 -75.8614 111° Southeast 367 422 16,600 -1,860 Descending New York Center
07:14PM 41.0556 -75.7267 108° East 352 405 14,800 -1,680 Descending New York Center
07:15PM 41.0211 -75.6058 111° Southeast 352 405 13,200 -1,020 Descending New York Center
07:16PM 40.9900 -75.4964 111° Southeast 341 392 12,900 -180 Descending New York Center
07:17PM 40.9611 -75.3872 109° East 324 373 12,900 -540 Level New York Center
07:18PM 40.9294 -75.2836 112° Southeast 319 367 11,900 -1,200 Descending New York Center
07:19PM 40.9039 -75.1886 110° East 309 356 10,600 -1,380 Descending New York Center
07:20PM 40.8725 -75.0822 111° Southeast 309 356 9,200 -1,620 Descending New York Center
07:21PM 40.8392 -74.9647 111° Southeast 309 356 7,400 -1,440 Descending New York Center
07:22PM 40.8056 -74.8586 113° Southeast 309 356 6,400 -720 Descending New York Center
07:23PM 40.7769 -74.7800 116° Southeast 287 330 6,000 -240 Descending New York Center
07:24PM 40.7553 -74.6831 106° East 254 292 6,000  Level New York Center
07:25PM 40.8000 -74.6167 48° Northeast 289 333 6,100 -60 Climbing New York TRACON
07:26PM 40.8833 -74.5833 17° North 279 321 5,900 -540 Descending New York TRACON
07:27PM 40.9500 -74.5333 30° Northeast 287 330 5,000 -480 Descending New York TRACON
07:28PM 41.0167 -74.5000 21° North 288 331 5,000  Level New York TRACON
07:29PM 41.0833 -74.4333 37° Northeast 285 328 5,000  Level New York TRACON
07:30PM 41.1300 -74.3631 49° Northeast 267 307 5,000  Level New York Center
07:31PM 41.1000 -74.3000 122° Southeast 194 223 5,000  Level New York TRACON
07:32PM 41.0667 -74.2500 131° Southeast 189 217 5,000 -300 Level New York TRACON
07:33PM 41.0167 -74.2167 153° Southeast 178 205 4,500 -540 Descending New York TRACON
07:34PM 40.9833 -74.1667 131° Southeast 162 186 4,000 -300 Descending New York TRACON
07:35PM 40.9667 -74.1333 124° Southeast 160 184 4,000 -60 Level New York TRACON
07:36PM 40.9333 -74.0833 131° Southeast 166 191 3,900 -480 Descending New York TRACON
07:37PM 40.9000 -74.0667 159° South 142 163 3,100 -480 Descending New York TRACON
07:38PM 40.8500 -74.0667 180° South 123 142 3,000 -180 Descending New York TRACON
07:39PM 40.8333 -74.0833 217° Southwest 113 130 2,800 -420 Descending New York TRACON
07:40PM 40.8000 -74.1000 201° Southwest 111 128 2,300 -600 Descending New York TRACON
07:41PM 40.7667 -74.1167 201° Southwest 132 152 1,600 -720 Descending New York TRACON
07:42PM 40.7333 -74.1333 201° Southwest 128 147 900 -720 Descending New York TRACON